Time;durP1;ratioP1;P1;durP2;ratioP2;P2;SDS_P1;SDS_P2;PMS_P1;PMS_P2;Temp;Humidity;BMP_temperature;BMP_pressure;BME280_temperature;BME280_humidity;BME280_pressure;Samples;Min_cycle;Max_cycle;Signal;HPM_P1;HPM_P2
2022/11/18 00:00:53;;;;;;;7.22;3.35;;;;;;;11.88;100.00;98231.59;4992033;28;20101;-67
2022/11/18 00:03:19;;;;;;;7.45;2.47;;;;;;;11.85;100.00;98227.34;4992068;28;20026;-67
2022/11/18 00:05:55;;;;;;;12.20;4.05;;;;;;;11.86;100.00;98220.22;4991873;28;20046;-66
2022/11/18 00:08:21;;;;;;;8.57;3.28;;;;;;;11.89;100.00;98230.66;4991997;28;20022;-66
2022/11/18 00:10:47;;;;;;;7.53;3.55;;;;;;;11.87;100.00;98235.22;4991864;28;20026;-66
2022/11/18 00:16:05;;;;;;;1.52;0.90;;;;;;;11.79;100.00;98232.22;4990550;28;20065;-66
2022/11/18 00:18:30;;;;;;;1.65;1.00;;;;;;;11.80;100.00;98240.13;4992094;28;20030;-67
2022/11/18 00:21:10;;;;;;;1.60;1.15;;;;;;;11.84;100.00;98252.25;4991062;28;20041;-67
2022/11/18 00:23:36;;;;;;;2.80;1.10;;;;;;;11.86;100.00;98252.19;4991804;28;20586;-67
2022/11/18 00:26:03;;;;;;;1.95;0.90;;;;;;;11.91;100.00;98250.03;4991676;28;20101;-67
2022/11/18 00:28:30;;;;;;;1.70;1.10;;;;;;;11.92;100.00;98249.09;4990399;28;20486;-67
2022/11/18 00:31:10;;;;;;;2.75;0.90;;;;;;;11.90;100.00;98251.88;4991901;28;20154;-67
2022/11/18 00:33:36;;;;;;;4.35;1.17;;;;;;;11.90;100.00;98254.53;4991646;28;20036;-67
2022/11/18 00:36:03;;;;;;;2.58;1.50;;;;;;;11.94;100.00;98257.88;4991583;28;20393;-67
2022/11/18 00:38:29;;;;;;;3.17;1.48;;;;;;;11.89;100.00;98250.16;4991928;28;20022;-67
2022/11/18 00:41:02;;;;;;;2.47;1.02;;;;;;;11.96;100.00;98260.44;4991627;28;20431;-67
2022/11/18 00:43:28;;;;;;;5.10;1.95;;;;;;;11.96;100.00;98260.44;4993878;28;20437;-67
2022/11/18 00:45:54;;;;;;;3.90;1.83;;;;;;;11.90;100.00;98243.03;4991514;28;20034;-67
2022/11/18 00:48:21;;;;;;;4.88;2.25;;;;;;;12.00;100.00;98260.09;4990891;28;20057;-67
2022/11/18 00:50:57;;;;;;;4.20;1.90;;;;;;;11.98;100.00;98267.34;4990798;28;20040;-67
2022/11/18 00:53:25;;;;;;;4.18;2.20;;;;;;;11.99;100.00;98261.09;4991023;28;20458;-67
2022/11/18 00:55:51;;;;;;;3.67;1.65;;;;;;;12.01;100.00;98267.13;4990578;28;20487;-67
2022/11/18 00:58:17;;;;;;;4.25;1.48;;;;;;;12.04;100.00;98264.28;4991041;28;20089;-67
2022/11/18 01:00:49;;;;;;;2.40;1.45;;;;;;;12.05;100.00;98271.31;4990779;28;20069;-67
2022/11/18 01:03:14;;;;;;;5.13;1.92;;;;;;;12.06;100.00;98272.19;4991338;28;20046;-67
2022/11/18 01:05:40;;;;;;;2.00;1.08;;;;;;;12.07;100.00;98269.41;4991223;28;20042;-67
2022/11/18 01:08:07;;;;;;;2.97;1.10;;;;;;;12.07;100.00;98280.06;4991334;28;20363;-67
2022/11/18 01:10:33;;;;;;;4.75;1.00;;;;;;;12.05;100.00;98270.47;5006248;28;20030;-66
2022/11/18 01:15:44;;;;;;;;;;;;;;;12.11;100.00;98292.22;4990671;28;20776;-67
2022/11/18 01:18:09;;;;;;;2.78;1.02;;;;;;;12.10;100.00;98285.19;4990334;28;19913;-67
2022/11/18 01:20:35;;;;;;;3.35;1.65;;;;;;;12.12;100.00;98293.97;4992667;28;20799;-67
2022/11/18 01:23:01;;;;;;;3.08;0.88;;;;;;;12.09;100.00;98304.81;4990071;28;20026;-67
2022/11/18 01:25:27;;;;;;;3.83;1.45;;;;;;;12.06;100.00;98307.66;4989985;28;20104;-68
2022/11/18 01:27:53;;;;;;;3.08;2.33;;;;;;;12.05;100.00;98324.63;4989871;28;20030;-67
2022/11/18 01:30:18;;;;;;;2.90;2.58;;;;;;;11.97;100.00;98310.94;4991161;28;20475;-67
2022/11/18 01:32:44;;;;;;;4.97;1.45;;;;;;;12.05;100.00;98329.09;4994092;28;20019;-67
2022/11/18 01:35:10;;;;;;;3.20;2.20;;;;;;;12.06;100.00;98331.66;4993420;28;20510;-67
2022/11/18 01:37:36;;;;;;;4.15;3.08;;;;;;;12.06;100.00;98333.47;4994633;28;20030;-67
2022/11/18 01:40:04;;;;;;;5.22;4.80;;;;;;;12.06;100.00;98339.63;4994804;28;20081;-66
2022/11/18 01:42:29;;;;;;;4.57;2.75;;;;;;;12.03;100.00;98342.50;4996760;28;20029;-66
2022/11/18 01:45:03;;;;;;;7.28;3.15;;;;;;;12.02;100.00;98351.47;4994359;28;20381;-66
2022/11/18 01:47:56;;;;;;;6.00;3.20;;;;;;;12.02;100.00;98355.94;4996712;28;20026;-66
2022/11/18 01:50:23;;;;;;;29.17;26.55;;;;;;;12.00;100.00;98353.38;4992847;28;20463;-67
2022/11/18 01:52:51;;;;;;;7.70;6.90;;;;;;;12.01;100.00;98360.41;4994220;28;20422;-66
2022/11/18 01:55:21;;;;;;;4.57;3.03;;;;;;;12.00;100.00;98369.38;4994430;28;20029;-67
2022/11/18 01:57:49;;;;;;;3.75;2.60;;;;;;;11.97;100.00;98369.56;4994081;28;20406;-66
2022/11/18 02:00:36;;;;;;;5.70;3.00;;;;;;;12.00;100.00;98374.69;4994402;28;20031;-66
2022/11/18 02:03:03;;;;;;;5.95;2.83;;;;;;;12.00;100.00;98382.69;4993708;28;20083;-67
2022/11/18 02:05:29;;;;;;;3.80;2.88;;;;;;;11.96;100.00;98369.66;4994495;28;20394;-66
2022/11/18 02:07:56;;;;;;;5.45;4.00;;;;;;;11.93;100.00;98376.91;4994134;28;20500;-67
2022/11/18 02:10:23;;;;;;;5.75;4.50;;;;;;;12.00;100.00;98390.69;4994414;28;20026;-67
2022/11/18 02:12:51;;;;;;;3.53;2.33;;;;;;;11.93;100.00;98391.19;4994183;28;20049;-66
2022/11/18 02:15:25;;;;;;;6.63;2.85;;;;;;;11.93;100.00;98392.00;4994010;28;20395;-66
2022/11/18 02:17:57;;;;;;;4.93;2.13;;;;;;;11.96;100.00;98394.47;4993756;28;20022;-66
2022/11/18 02:20:28;;;;;;;3.95;2.47;;;;;;;11.91;100.00;98402.78;4993929;28;20029;-67
2022/11/18 02:23:24;;;;;;;4.43;3.38;;;;;;;11.89;100.00;98404.66;4993904;28;20038;-67
2022/11/18 02:25:59;;;;;;;6.10;3.47;;;;;;;11.93;100.00;98412.50;4993978;28;20022;-67
2022/11/18 02:28:27;;;;;;;6.85;4.82;;;;;;;11.90;100.00;98418.84;4993658;28;20034;-67
2022/11/18 02:31:19;;;;;;;2.88;2.53;;;;;;;11.90;100.00;98421.53;4993813;28;20478;-67
2022/11/18 02:33:58;;;;;;;2.55;1.77;;;;;;;11.89;100.00;98422.50;4989692;28;20153;-67
2022/11/18 02:36:48;;;;;;;3.00;1.80;;;;;;;11.87;100.00;98427.91;4993673;28;20045;-67
2022/11/18 02:39:21;;;;;;;3.20;2.90;;;;;;;11.87;100.00;98424.38;4993628;28;20109;-67
2022/11/18 02:41:50;;;;;;;3.58;1.52;;;;;;;11.84;100.00;98427.25;5008506;28;20026;-67
2022/11/18 02:44:19;;;;;;;2.67;1.70;;;;;;;11.73;100.00;98435.91;4995062;28;20034;-67
2022/11/18 02:46:51;;;;;;;5.97;4.78;;;;;;;11.65;100.00;98432.84;4993588;28;20478;-67
2022/11/18 02:49:22;;;;;;;5.10;4.55;;;;;;;11.45;100.00;98424.38;4993295;28;20478;-67
2022/11/18 02:51:50;;;;;;;10.52;8.98;;;;;;;11.41;100.00;98428.16;4993261;28;20089;-67
2022/11/18 02:54:19;;;;;;;6.35;5.75;;;;;;;11.37;100.00;98431.94;4993351;28;20030;-67
2022/11/18 02:56:45;;;;;;;3.53;2.75;;;;;;;11.41;100.00;98422.84;4993161;28;20101;-67
2022/11/18 02:59:16;;;;;;;2.15;1.40;;;;;;;11.41;100.00;98437.00;4993214;28;20044;-67
2022/11/18 03:01:41;;;;;;;2.13;1.95;;;;;;;11.44;100.00;98438.63;4993181;28;20044;-67
2022/11/18 03:04:06;;;;;;;2.75;2.30;;;;;;;11.41;100.00;98439.69;4992884;28;20022;-67
2022/11/18 03:06:47;;;;;;;2.00;1.20;;;;;;;11.45;100.00;98445.66;4993065;28;20026;-67
2022/11/18 03:09:27;;;;;;;3.15;2.85;;;;;;;11.38;100.00;98449.66;4992789;28;20077;-67
2022/11/18 03:12:24;;;;;;;2.70;2.15;;;;;;;11.31;100.00;98451.81;4992951;28;20018;-67
2022/11/18 03:14:49;;;;;;;8.80;8.00;;;;;;;11.31;100.00;98442.97;4995223;28;20050;-67
2022/11/18 03:17:36;;;;;;;5.80;5.25;;;;;;;11.35;100.00;98449.84;4992900;28;20049;-67
2022/11/18 03:20:07;;;;;;;3.53;1.83;;;;;;;11.30;100.00;98451.91;4992760;28;20501;-67
2022/11/18 03:22:39;;;;;;;1.30;1.20;;;;;;;11.31;100.00;98453.63;4992629;28;20038;-67
2022/11/18 03:25:08;;;;;;;3.95;3.30;;;;;;;11.21;100.00;98468.41;4991126;28;20022;-67
2022/11/18 03:27:47;;;;;;;2.33;2.10;;;;;;;11.20;100.00;98472.03;4992624;28;20080;-67
2022/11/18 03:30:17;;;;;;;3.63;2.53;;;;;;;11.13;100.00;98471.56;4991207;28;20026;-67
2022/11/18 03:32:50;;;;;;;13.32;12.15;;;;;;;11.16;100.00;98475.81;4992612;28;20018;-67
2022/11/18 03:35:23;;;;;;;5.38;4.50;;;;;;;11.15;100.00;98484.75;4992636;28;20374;-67
2022/11/18 03:37:53;;;;;;;9.60;8.43;;;;;;;11.09;100.00;98496.63;4992564;28;20034;-67
2022/11/18 03:40:25;;;;;;;15.50;13.95;;;;;;;11.09;100.00;98499.28;4992399;28;20493;-67
2022/11/18 03:43:14;;;;;;;8.10;6.88;;;;;;;11.08;100.00;98504.69;4992033;28;20153;-67
2022/11/18 03:45:46;;;;;;;7.32;6.10;;;;;;;11.03;100.00;98502.31;4991491;28;20034;-67
2022/11/18 03:48:15;;;;;;;2.80;2.42;;;;;;;11.09;100.00;98512.59;4990690;28;20474;-67
2022/11/18 03:50:49;;;;;;;9.85;8.38;;;;;;;11.06;100.00;98506.56;4993860;28;20382;-67
2022/11/18 03:53:17;;;;;;;9.68;4.40;;;;;;;11.00;100.00;98521.13;4991350;28;20022;-67
2022/11/18 03:55:49;;;;;;;80.28;46.78;;;;;;;11.04;100.00;98529.75;4991478;28;20757;-67
2022/11/18 03:58:20;;;;;;;21.73;19.52;;;;;;;11.00;100.00;98536.22;4991605;28;20804;-67
2022/11/18 04:00:52;;;;;;;29.45;26.35;;;;;;;10.91;100.00;98526.94;4992129;28;20031;-67
2022/11/18 04:03:18;;;;;;;16.33;13.55;;;;;;;10.78;100.00;98530.41;4991807;28;20031;-66
2022/11/18 04:05:43;;;;;;;12.50;8.85;;;;;;;10.70;100.00;98533.50;4991775;28;20030;-67
2022/11/18 04:08:15;;;;;;;9.52;8.52;;;;;;;10.76;100.00;98538.47;4991754;28;20068;-67
2022/11/18 04:10:43;;;;;;;9.23;7.78;;;;;;;10.77;100.00;98542.00;4992081;28;20034;-66
2022/11/18 04:13:23;;;;;;;4.55;3.88;;;;;;;10.71;100.00;98547.66;4991993;28;20041;-66
2022/11/18 04:15:49;;;;;;;9.85;7.07;;;;;;;10.68;100.00;98553.13;4991635;28;20057;-66
2022/11/18 04:18:14;;;;;;;10.68;4.25;;;;;;;10.67;100.00;98551.44;4991694;28;20034;-66
2022/11/18 04:20:40;;;;;;;2.85;2.47;;;;;;;10.64;100.00;98547.16;4991723;28;20026;-66
2022/11/18 04:23:06;;;;;;;2.17;1.48;;;;;;;10.67;100.00;98551.44;4991531;28;20034;-66
2022/11/18 04:25:32;;;;;;;8.07;1.50;;;;;;;10.63;100.00;98556.94;4992098;28;20125;-65
2022/11/18 04:27:57;;;;;;;2.88;1.50;;;;;;;10.71;100.00;98564.47;4991767;28;20521;-66
2022/11/18 04:30:23;;;;;;;2.70;0.70;;;;;;;10.71;100.00;98568.94;4991592;28;20032;-66
2022/11/18 04:32:48;;;;;;;0.68;0.68;;;;;;;10.69;100.00;98560.19;4991601;28;20648;-67
2022/11/18 04:35:14;;;;;;;0.50;0.50;;;;;;;10.71;100.00;98566.28;4994031;28;20026;-66
2022/11/18 04:37:40;;;;;;;0.90;0.80;;;;;;;10.71;100.00;98574.25;4991656;28;20054;-66
2022/11/18 04:40:06;;;;;;;0.60;0.60;;;;;;;10.69;100.00;98577.00;4991536;28;20757;-66
2022/11/18 04:42:31;;;;;;;1.73;0.85;;;;;;;10.70;100.00;98567.22;4991508;28;20122;-66
2022/11/18 04:44:57;;;;;;;1.90;0.88;;;;;;;10.64;100.00;98568.44;4991424;28;20109;-66
2022/11/18 04:47:22;;;;;;;4.75;1.40;;;;;;;10.60;100.00;98565.06;4991515;28;20058;-66
2022/11/18 04:49:48;;;;;;;6.53;1.80;;;;;;;10.66;100.00;98566.50;4990952;28;20498;-66
2022/11/18 04:52:14;;;;;;;8.73;1.45;;;;;;;10.68;100.00;98569.09;4990405;28;20090;-66
2022/11/18 04:54:39;;;;;;;2.30;1.00;;;;;;;10.64;100.00;98569.25;4990397;28;20026;-66
2022/11/18 04:57:05;;;;;;;7.05;1.15;;;;;;;10.61;100.00;98572.09;4989957;28;20022;-66
2022/11/18 04:59:31;;;;;;;7.85;1.20;;;;;;;10.67;100.00;98570.03;4990146;28;20489;-67
2022/11/18 05:01:57;;;;;;;3.95;1.35;;;;;;;10.72;100.00;98575.97;4990214;28;20043;-66
2022/11/18 05:04:25;;;;;;;3.72;1.60;;;;;;;10.69;100.00;98578.81;4990350;28;20094;-66
2022/11/18 05:06:51;;;;;;;2.13;1.40;;;;;;;10.74;100.00;98579.41;4993163;28;20031;-66
2022/11/18 05:09:17;;;;;;;2.92;1.25;;;;;;;10.79;100.00;98582.66;4995018;28;20037;-66
2022/11/18 05:14:28;;;;;;;6.82;1.75;;;;;;;10.82;100.00;98585.16;4995100;28;20441;-66
2022/11/18 05:16:56;;;;;;;4.05;1.33;;;;;;;10.76;100.00;98589.00;4994977;28;20037;-66
2022/11/18 05:19:21;;;;;;;13.80;3.33;;;;;;;10.73;100.00;98578.53;4994602;28;20024;-67
2022/11/18 05:21:47;;;;;;;3.20;1.80;;;;;;;10.74;100.00;98585.56;4997550;28;20477;-66
2022/11/18 05:24:13;;;;;;;33.97;3.08;;;;;;;10.70;100.00;98583.16;4995088;28;20113;-66
2022/11/18 05:26:38;;;;;;;9.32;2.08;;;;;;;10.78;100.00;98586.25;4994724;28;20038;-66
2022/11/18 05:29:04;;;;;;;5.18;2.00;;;;;;;10.77;100.00;98587.19;4994627;28;20042;-66
2022/11/18 05:31:30;;;;;;;4.88;1.20;;;;;;;10.78;100.00;98595.09;4994908;28;20137;-66
2022/11/18 05:33:55;;;;;;;1.85;1.17;;;;;;;10.77;100.00;98597.84;4994691;28;20022;-66
2022/11/18 05:36:21;;;;;;;1.58;1.20;;;;;;;10.73;100.00;98604.25;4995162;28;20026;-66
2022/11/18 05:38:47;;;;;;;2.13;1.38;;;;;;;10.71;100.00;98603.50;4996779;28;20030;-66
2022/11/18 05:43:57;;;;;;;3.38;2.10;;;;;;;10.76;100.00;98614.75;4994730;28;20037;-66
2022/11/18 05:46:23;;;;;;;3.42;1.58;;;;;;;10.77;100.00;98616.47;4994183;28;20451;-65
2022/11/18 05:48:48;;;;;;;4.90;1.95;;;;;;;10.77;100.00;98611.13;4994602;28;20030;-66
2022/11/18 05:51:13;;;;;;;3.65;1.80;;;;;;;10.76;100.00;98620.06;4994448;28;20040;-66
2022/11/18 05:53:39;;;;;;;2.72;1.50;;;;;;;10.73;100.00;98621.09;4993053;28;20022;-66
2022/11/18 05:56:19;;;;;;;2.80;1.55;;;;;;;10.72;100.00;98624.69;4993991;28;20030;-66
2022/11/18 05:58:44;;;;;;;1.67;1.20;;;;;;;10.64;100.00;98613.63;4974998;28;20026;-66
2022/11/18 06:01:13;;;;;;;1.42;1.10;;;;;;;10.74;100.00;98625.44;4975101;28;20176;-66
2022/11/18 06:03:39;;;;;;;1.83;1.15;;;;;;;10.70;100.00;98631.91;4982165;28;20101;-66
2022/11/18 06:06:08;;;;;;;3.08;1.60;;;;;;;10.73;100.00;98634.38;4994054;28;20030;-66
2022/11/18 06:08:55;;;;;;;3.53;1.80;;;;;;;10.77;100.00;98637.72;4994052;28;20040;-66
2022/11/18 06:11:21;;;;;;;2.05;1.70;;;;;;;10.68;100.00;98631.13;4994082;28;20501;-66
2022/11/18 06:13:53;;;;;;;2.25;1.45;;;;;;;10.67;100.00;98640.03;4993770;28;20022;-66
2022/11/18 06:16:23;;;;;;;5.20;2.07;;;;;;;10.54;100.00;98621.22;4994218;28;20077;-66
2022/11/18 06:18:49;;;;;;;5.10;2.05;;;;;;;10.71;100.00;98646.06;4993808;28;20079;-65
2022/11/18 06:21:14;;;;;;;5.72;2.17;;;;;;;10.75;100.00;98656.44;4993873;28;20057;-66
2022/11/18 06:23:41;;;;;;;4.38;2.28;;;;;;;10.79;100.00;98662.44;4992437;28;20085;-66
2022/11/18 06:26:08;;;;;;;4.43;2.20;;;;;;;10.77;100.00;98659.00;4993849;28;20042;-66
2022/11/18 06:28:35;;;;;;;5.32;2.10;;;;;;;10.73;100.00;98660.97;4995343;28;20042;-66
2022/11/18 06:31:00;;;;;;;3.35;1.90;;;;;;;10.53;100.00;98638.13;4993875;28;20109;-66
2022/11/18 06:33:25;;;;;;;2.15;1.60;;;;;;;10.73;100.00;98671.63;4993474;28;20114;-66
2022/11/18 06:35:51;;;;;;;2.10;1.30;;;;;;;10.76;100.00;98676.75;4993645;28;20540;-66
2022/11/18 06:38:16;;;;;;;1.65;1.10;;;;;;;10.75;100.00;98687.47;4993639;28;20027;-66
2022/11/18 06:40:43;;;;;;;8.23;3.38;;;;;;;10.76;100.00;98687.41;4993571;28;20022;-66
2022/11/18 06:48:42;;;;;;;0.85;0.75;;;;;;;10.82;100.00;98716.34;4974286;28;20596;-66
2022/11/18 06:51:07;;;;;;;1.63;0.68;;;;;;;10.86;100.00;98706.38;4974027;28;20022;-66
2022/11/18 06:53:34;;;;;;;1.77;1.00;;;;;;;10.86;100.00;98720.53;4973926;28;20109;-66
2022/11/18 06:56:08;;;;;;;0.60;0.60;;;;;;;10.87;100.00;98724.06;4973945;28;20034;-66
2022/11/18 06:58:33;;;;;;;2.35;0.80;;;;;;;10.88;100.00;98717.78;4975192;28;20038;-67
2022/11/18 07:01:20;;;;;;;0.60;0.60;;;;;;;10.82;100.00;98728.78;4992987;28;20042;-67
2022/11/18 07:03:46;;;;;;;0.98;0.70;;;;;;;10.80;100.00;98728.00;4991199;28;20052;-66
2022/11/18 07:06:14;;;;;;;0.95;0.82;;;;;;;10.75;100.00;98730.91;4992468;28;20034;-67
2022/11/18 07:08:40;;;;;;;1.42;1.00;;;;;;;10.70;100.00;98732.06;4993082;28;20058;-66
2022/11/18 07:11:12;;;;;;;1.48;1.10;;;;;;;10.69;100.00;98739.22;4992879;28;20180;-66
2022/11/18 07:13:38;;;;;;;1.63;1.27;;;;;;;10.72;100.00;98733.72;4993000;28;20046;-66
2022/11/18 07:16:12;;;;;;;1.98;1.50;;;;;;;10.73;100.00;98739.88;4992580;28;20069;-66
2022/11/18 07:18:40;;;;;;;6.55;3.33;;;;;;;10.76;100.00;98740.59;4992819;28;20037;-66
2022/11/18 07:21:08;;;;;;;6.32;3.38;;;;;;;10.76;100.00;98742.41;4992531;28;20030;-66
2022/11/18 07:23:34;;;;;;;5.82;2.60;;;;;;;10.80;100.00;98749.25;4976078;28;20026;-67
2022/11/18 07:26:00;;;;;;;3.17;1.80;;;;;;;10.89;100.00;98756.75;4992504;28;20068;-67
2022/11/18 07:28:27;;;;;;;3.15;1.77;;;;;;;10.91;100.00;98752.19;4995008;28;20026;-66
2022/11/18 07:30:52;;;;;;;2.67;1.88;;;;;;;10.92;100.00;98759.25;4992216;28;20027;-66
2022/11/18 07:33:18;;;;;;;8.30;2.28;;;;;;;10.94;100.00;98763.53;4992598;28;20072;-66
2022/11/18 07:35:43;;;;;;;5.80;3.33;;;;;;;10.99;100.00;98768.63;4976407;28;20030;-66
2022/11/18 07:38:09;;;;;;;3.58;2.20;;;;;;;10.97;100.00;98767.84;4977497;28;20033;-66
2022/11/18 07:40:35;;;;;;;2.85;2.00;;;;;;;10.97;100.00;98784.66;4997831;28;20018;-66
2022/11/18 07:43:00;;;;;;;5.10;2.25;;;;;;;11.01;100.00;98780.03;5006634;28;20386;-67
2022/11/18 07:45:25;;;;;;;2.97;1.70;;;;;;;11.08;100.00;98782.28;4992125;28;20109;-67
2022/11/18 07:47:51;;;;;;;4.22;2.13;;;;;;;11.09;100.00;98788.44;4992293;28;20026;-67
2022/11/18 07:50:17;;;;;;;2.88;1.65;;;;;;;11.06;100.00;98784.16;4992653;28;20076;-66
2022/11/18 07:52:42;;;;;;;4.20;2.30;;;;;;;11.08;100.00;98794.72;4993810;28;20619;-67
2022/11/18 07:55:08;;;;;;;4.55;1.52;;;;;;;11.13;100.00;98795.34;4991793;28;20033;-67
2022/11/18 07:57:33;;;;;;;3.78;1.52;;;;;;;11.13;100.00;98798.00;4991583;28;20022;-67
2022/11/18 07:59:59;;;;;;;2.60;1.55;;;;;;;11.16;100.00;98797.84;4992059;28;20373;-66
2022/11/18 08:02:24;;;;;;;9.65;4.72;;;;;;;11.15;100.00;98799.63;4992009;28;20085;-67
2022/11/18 08:04:50;;;;;;;5.05;3.13;;;;;;;11.13;100.00;98798.88;4991861;28;20022;-67
2022/11/18 08:07:15;;;;;;;21.85;8.90;;;;;;;11.16;100.00;98805.81;4991688;28;20191;-67
2022/11/18 08:09:41;;;;;;;18.58;7.03;;;;;;;11.18;100.00;98806.59;4991931;28;20026;-66
2022/11/18 08:12:06;;;;;;;11.82;5.63;;;;;;;11.21;100.00;98811.75;4991728;28;20417;-66
2022/11/18 08:14:32;;;;;;;6.70;3.53;;;;;;;11.23;100.00;98809.88;4991249;28;20050;-67
2022/11/18 08:16:57;;;;;;;9.48;4.35;;;;;;;11.24;100.00;98819.56;4991761;28;20108;-67
2022/11/18 08:19:22;;;;;;;8.05;4.25;;;;;;;11.23;100.00;98823.19;4991616;28;20026;-67
2022/11/18 08:21:49;;;;;;;7.78;3.72;;;;;;;11.18;100.00;98812.78;4993902;28;20076;-67
2022/11/18 08:24:14;;;;;;;5.70;2.72;;;;;;;11.28;100.00;98831.78;4991806;28;20066;-67
2022/11/18 08:26:39;;;;;;;6.22;3.42;;;;;;;11.29;100.00;98834.34;4991592;28;20422;-66
2022/11/18 08:29:05;;;;;;;4.05;2.50;;;;;;;11.30;100.00;98830.72;4991519;28;20026;-66
2022/11/18 08:31:30;;;;;;;4.70;2.70;;;;;;;11.33;100.00;98829.72;4991562;28;20482;-66
2022/11/18 08:34:01;;;;;;;4.20;2.38;;;;;;;11.38;100.00;98841.00;4991432;28;20142;-67
2022/11/18 08:36:29;;;;;;;5.57;2.10;;;;;;;11.39;100.00;98840.03;4991120;28;20371;-66
2022/11/18 08:38:56;;;;;;;10.65;2.40;;;;;;;11.43;100.00;98841.59;4989391;28;20030;-66
2022/11/18 08:41:30;;;;;;;3.67;2.50;;;;;;;11.48;100.00;98839.53;4989889;28;20030;-66
2022/11/18 08:43:55;;;;;;;3.58;1.90;;;;;;;11.54;100.00;98848.06;4990898;28;20080;-66
2022/11/18 08:46:21;;;;;;;4.20;2.10;;;;;;;11.54;100.00;98839.19;4990614;28;20034;-66
2022/11/18 08:48:47;;;;;;;3.28;1.73;;;;;;;11.56;100.00;98850.63;4990907;28;20026;-67
2022/11/18 08:51:13;;;;;;;5.05;2.03;;;;;;;11.58;100.00;98851.41;4990337;28;20104;-66
2022/11/18 08:53:39;;;;;;;5.13;2.20;;;;;;;11.65;100.00;98852.81;4989399;28;20018;-67
2022/11/18 08:56:04;;;;;;;4.03;2.22;;;;;;;11.70;100.00;98846.28;4983578;28;20018;-66
2022/11/18 08:58:30;;;;;;;6.47;2.88;;;;;;;11.72;100.00;98848.88;4990262;28;20146;-66
2022/11/18 09:00:55;;;;;;;3.65;2.65;;;;;;;11.73;100.00;98846.09;4991217;28;20026;-66
2022/11/18 09:03:21;;;;;;;5.97;2.83;;;;;;;11.80;100.00;98859.94;4990951;28;20049;-66
2022/11/18 09:05:48;;;;;;;3.55;2.13;;;;;;;11.78;100.00;98848.50;4990118;28;20092;-66
2022/11/18 09:08:14;;;;;;;4.95;2.05;;;;;;;11.87;100.00;98858.66;4986427;28;20101;-66
2022/11/18 09:10:40;;;;;;;3.17;2.38;;;;;;;11.89;100.00;98862.13;4989129;28;20546;-66
2022/11/18 09:13:05;;;;;;;6.20;2.80;;;;;;;11.95;100.00;98864.41;4989179;28;20014;-66
2022/11/18 09:15:31;;;;;;;4.10;2.17;;;;;;;12.02;100.00;98868.47;4986875;28;20975;-67
2022/11/18 09:17:57;;;;;;;3.85;2.47;;;;;;;12.05;100.00;98875.41;4985231;28;20026;-66
2022/11/18 09:20:24;;;;;;;6.82;2.95;;;;;;;12.11;100.00;98872.41;4988945;28;20161;-66
2022/11/18 09:22:49;;;;;;;7.78;3.75;;;;;;;12.06;100.00;98880.66;4985925;28;20026;-66
2022/11/18 09:25:15;;;;;;;7.25;3.88;;;;;;;12.12;100.00;98877.66;4988044;28;20037;-66
2022/11/18 09:27:41;;;;;;;10.35;4.93;;;;;;;12.19;100.00;98884.34;4990653;28;20058;-67
2022/11/18 09:30:07;;;;;;;11.20;5.22;;;;;;;12.02;100.00;98854.28;4988608;28;20172;-66
2022/11/18 09:32:32;;;;;;;11.20;4.82;;;;;;;12.28;100.00;98889.16;4986893;28;20526;-66
2022/11/18 09:34:58;;;;;;;9.27;4.25;;;;;;;12.37;100.00;98883.28;4989466;28;20062;-67
2022/11/18 09:37:23;;;;;;;5.95;2.60;;;;;;;12.38;100.00;98877.03;4994476;28;20037;-66
2022/11/18 09:39:49;;;;;;;3.10;1.80;;;;;;;12.44;100.00;98892.66;4989312;28;20504;-66
2022/11/18 09:42:26;;;;;;;2.30;1.33;;;;;;;12.43;100.00;98893.63;4987341;28;20022;-67
2022/11/18 09:45:04;;;;;;;2.25;1.30;;;;;;;12.50;100.00;98902.13;4990593;28;20057;-67
2022/11/18 09:47:32;;;;;;;2.30;1.60;;;;;;;12.48;100.00;98904.88;4988380;28;20122;-67
2022/11/18 09:50:12;;;;;;;3.35;1.75;;;;;;;12.51;100.00;98904.69;4989412;28;20034;-67
2022/11/18 09:52:59;;;;;;;3.47;1.67;;;;;;;12.54;100.00;98901.84;4985204;28;20015;-67
2022/11/18 09:55:25;;;;;;;3.72;2.20;;;;;;;12.60;100.00;98906.81;4991872;28;20042;-67
2022/11/18 09:57:53;;;;;;;4.63;2.13;;;;;;;12.61;100.00;98908.56;4990082;28;20022;-66
2022/11/18 10:00:20;;;;;;;2.72;1.70;;;;;;;12.68;100.00;98912.59;4990078;28;20046;-66
2022/11/18 10:03:03;;;;;;;3.78;2.20;;;;;;;12.88;100.00;98914.91;4986886;28;20038;-67
2022/11/18 10:05:55;;;;;;;6.57;2.92;;;;;;;13.79;100.00;98917.38;4987493;28;20046;-67
2022/11/18 10:08:34;;;;;;;5.05;2.75;;;;;;;14.49;100.00;98914.56;4986977;28;20027;-67
2022/11/18 10:11:03;;;;;;;5.38;2.75;;;;;;;14.59;100.00;98917.50;4990917;28;20848;-67
2022/11/18 10:13:50;;;;;;;6.65;2.28;;;;;;;14.46;100.00;98923.63;4991221;28;20029;-67
2022/11/18 10:16:47;;;;;;;4.30;2.28;;;;;;;14.13;100.00;98917.81;4991160;28;20950;-67
2022/11/18 10:19:19;;;;;;;3.95;2.10;;;;;;;13.97;100.00;98921.56;4991134;28;20057;-67
2022/11/18 10:22:06;;;;;;;3.30;1.60;;;;;;;13.79;100.00;98914.69;4989023;28;20026;-67
2022/11/18 10:24:52;;;;;;;3.60;1.65;;;;;;;13.74;100.00;98927.50;4990467;28;20046;-67
2022/11/18 10:27:18;;;;;;;2.60;1.40;;;;;;;13.66;100.00;98927.06;4988894;28;20041;-67
2022/11/18 10:29:47;;;;;;;3.75;1.50;;;;;;;13.57;100.00;98933.88;4989590;28;20054;-67
2022/11/18 10:32:15;;;;;;;4.10;1.83;;;;;;;13.47;100.00;98940.75;4992703;28;20084;-67
2022/11/18 10:34:50;;;;;;;1.85;1.20;;;;;;;13.27;100.00;98945.56;4993621;28;20060;-67
2022/11/18 10:37:35;;;;;;;3.33;1.88;;;;;;;13.14;100.00;98946.31;4992763;28;20714;-67
2022/11/18 10:40:03;;;;;;;4.03;1.55;;;;;;;13.13;100.00;98939.25;4993029;28;20030;-67
2022/11/18 10:42:41;;;;;;;3.95;1.75;;;;;;;13.14;100.00;98938.31;4990010;28;20034;-67
2022/11/18 10:45:22;;;;;;;2.58;1.40;;;;;;;13.12;100.00;98950.88;4992653;28;20041;-67
2022/11/18 10:48:18;;;;;;;4.80;2.20;;;;;;;13.12;100.00;98940.19;4990192;28;20089;-67
2022/11/18 10:50:49;;;;;;;3.08;2.35;;;;;;;13.13;100.00;98947.25;4990110;28;20022;-67
2022/11/18 10:53:34;;;;;;;4.82;1.60;;;;;;;13.14;100.00;98951.66;5006324;28;20408;-67
2022/11/18 10:56:05;;;;;;;3.00;1.80;;;;;;;12.93;100.00;98944.88;4988844;28;20365;-67
2022/11/18 10:58:34;;;;;;;4.68;1.83;;;;;;;12.97;100.00;98941.06;4987346;28;20033;-67
2022/11/18 11:01:13;;;;;;;4.07;1.77;;;;;;;13.15;100.00;98945.34;4986411;28;20824;-67
2022/11/18 11:03:40;;;;;;;4.10;1.58;;;;;;;13.34;100.00;98950.44;4987630;28;20672;-67
2022/11/18 11:06:39;;;;;;;3.47;1.65;;;;;;;13.58;100.00;98948.06;4987867;28;20640;-67
2022/11/18 11:09:22;;;;;;;4.20;1.63;;;;;;;13.66;100.00;98951.13;4988755;28;20069;-67
2022/11/18 11:12:14;;;;;;;4.65;1.42;;;;;;;13.64;100.00;98950.38;4988000;28;20041;-67
2022/11/18 11:14:52;;;;;;;5.20;1.75;;;;;;;13.70;100.00;98940.19;4991114;28;20058;-67
2022/11/18 11:17:26;;;;;;;3.25;1.30;;;;;;;13.62;100.00;98946.94;4977629;28;20038;-67
2022/11/18 11:20:00;;;;;;;3.05;1.60;;;;;;;13.58;100.00;98959.63;4987134;28;20050;-67
2022/11/18 11:22:27;;;;;;;4.60;1.40;;;;;;;13.53;100.00;98947.50;4987090;28;20030;-67
2022/11/18 11:24:54;;;;;;;3.65;1.60;;;;;;;13.52;100.00;98949.34;4990107;28;20125;-67
2022/11/18 11:27:22;;;;;;;5.03;1.70;;;;;;;13.51;100.00;98957.44;4988262;28;20034;-67
2022/11/18 11:30:07;;;;;;;3.55;1.83;;;;;;;13.45;100.00;98952.44;4991230;28;20041;-67
2022/11/18 11:32:56;;;;;;;4.47;1.73;;;;;;;13.44;100.00;98956.09;4991152;28;20442;-67
2022/11/18 11:35:28;;;;;;;4.43;1.60;;;;;;;13.26;100.00;98962.53;4990059;28;20049;-67
2022/11/18 11:38:24;;;;;;;3.00;1.58;;;;;;;13.17;100.00;98970.16;4990782;28;20105;-67
2022/11/18 11:41:11;;;;;;;3.22;1.52;;;;;;;13.09;100.00;98972.44;4997214;28;20024;-67
2022/11/18 11:43:36;;;;;;;3.58;1.52;;;;;;;13.08;100.00;98968.03;4988106;28;20062;-67
2022/11/18 11:46:16;;;;;;;5.57;2.15;;;;;;;13.12;100.00;98979.38;4991310;28;20050;-67
2022/11/18 11:49:00;;;;;;;3.88;2.08;;;;;;;13.11;100.00;98977.69;4991258;28;20033;-67
2022/11/18 11:52:04;;;;;;;5.50;1.95;;;;;;;13.10;100.00;98973.25;4989706;28;20073;-67
2022/11/18 11:54:42;;;;;;;3.67;1.58;;;;;;;13.14;100.00;98974.81;4990056;28;20681;-67